Time;durP1;ratioP1;P1;durP2;ratioP2;P2;SDS_P1;SDS_P2;PMS_P1;PMS_P2;Temp;Humidity;BMP_temperature;BMP_pressure;BME280_temperature;BME280_humidity;BME280_pressure;Samples;Min_cycle;Max_cycle;Signal;HPM_P1;HPM_P2
2022/09/05 00:02:36;;;;;;;3.22;1.40;;;;;24.00;101772.00;;;;5089067;28;20205;-78
2022/09/05 00:05:23;;;;;;;1.95;1.15;;;;;24.00;101773.00;;;;5089638;28;20202;-78
2022/09/05 00:08:00;;;;;;;1.75;1.08;;;;;24.00;101771.00;;;;5087379;28;20214;-78
2022/09/05 00:10:39;;;;;;;3.28;1.30;;;;;24.00;101771.00;;;;5089207;28;20546;-78
2022/09/05 00:13:12;;;;;;;1.17;1.08;;;;;24.00;101765.00;;;;5083455;28;20199;-78
2022/09/05 00:15:46;;;;;;;2.22;1.40;;;;;24.00;101765.00;;;;5076550;28;20212;-78
2022/09/05 00:18:47;;;;;;;2.50;1.40;;;;;23.90;101762.00;;;;5090569;28;20208;-78
2022/09/05 00:21:27;;;;;;;1.25;1.15;;;;;24.00;101765.00;;;;5090568;28;20668;-78
2022/09/05 00:24:14;;;;;;;1.40;1.30;;;;;23.90;101766.00;;;;5089960;28;20229;-78
2022/09/05 00:26:52;;;;;;;2.38;1.33;;;;;23.90;101765.00;;;;5083703;28;20214;-78
2022/09/05 00:29:38;;;;;;;2.10;1.13;;;;;23.90;101764.00;;;;5089324;28;20272;-78
2022/09/05 00:32:13;;;;;;;2.83;1.25;;;;;24.00;101766.00;;;;5087530;28;20204;-78
2022/09/05 00:35:09;;;;;;;3.05;1.17;;;;;23.80;101758.00;;;;5087567;28;20221;-78
2022/09/05 00:37:39;;;;;;;1.85;1.20;;;;;24.00;101755.00;;;;5084599;28;20667;-78
2022/09/05 00:40:25;;;;;;;1.42;1.10;;;;;23.90;101761.00;;;;5090024;28;20202;-78
2022/09/05 00:42:55;;;;;;;1.92;1.40;;;;;24.00;101755.00;;;;5089175;28;20275;-78
2022/09/05 00:45:30;;;;;;;1.10;1.00;;;;;23.90;101764.00;;;;5088525;28;20202;-78
2022/09/05 00:48:11;;;;;;;2.00;1.20;;;;;23.90;101754.00;;;;5088343;28;20208;-77
2022/09/05 00:51:05;;;;;;;1.50;1.30;;;;;23.80;101757.00;;;;5089634;28;20567;-78
2022/09/05 00:53:41;;;;;;;4.80;1.30;;;;;23.90;101759.00;;;;5087186;28;20194;-78
2022/09/05 00:56:32;;;;;;;1.42;1.33;;;;;23.80;101749.00;;;;5088897;28;20549;-78
2022/09/05 00:59:26;;;;;;;2.47;1.42;;;;;23.80;101754.00;;;;5089316;28;20201;-78
2022/09/05 01:01:59;;;;;;;1.70;1.20;;;;;23.90;101757.00;;;;5085804;28;20198;-78
2022/09/05 01:04:39;;;;;;;1.30;1.20;;;;;23.80;101756.00;;;;5087699;28;20214;-78
2022/09/05 01:07:26;;;;;;;1.70;1.42;;;;;23.80;101757.00;;;;5088927;28;20213;-78
2022/09/05 01:10:06;;;;;;;1.88;1.58;;;;;23.80;101760.00;;;;5087759;28;20229;-78
2022/09/05 01:12:48;;;;;;;1.77;1.50;;;;;23.80;101751.00;;;;5077022;28;20232;-78
2022/09/05 01:15:25;;;;;;;1.67;1.48;;;;;23.80;101754.00;;;;5089125;28;20194;-78
2022/09/05 01:18:07;;;;;;;5.35;1.38;;;;;23.70;101751.00;;;;5088704;28;20272;-78
2022/09/05 01:20:54;;;;;;;5.63;1.35;;;;;23.70;101748.00;;;;5085598;28;20198;-78
2022/09/05 01:23:44;;;;;;;1.88;1.38;;;;;23.70;101751.00;;;;5087325;28;20229;-78
2022/09/05 01:26:29;;;;;;;1.55;1.20;;;;;23.70;101748.00;;;;5086765;28;20233;-78
2022/09/05 01:29:02;;;;;;;4.07;1.58;;;;;23.70;101753.00;;;;5088132;28;20201;-78
2022/09/05 01:31:37;;;;;;;1.67;1.27;;;;;23.70;101753.00;;;;5087214;28;20202;-78
2022/09/05 01:34:12;;;;;;;2.80;1.35;;;;;23.70;101753.00;;;;5087534;28;20614;-78
2022/09/05 01:36:51;;;;;;;2.65;1.30;;;;;23.60;101750.00;;;;5086800;28;20200;-78
2022/09/05 01:39:25;;;;;;;1.77;1.30;;;;;23.70;101745.00;;;;5086865;28;20201;-78
2022/09/05 01:41:59;;;;;;;1.77;1.55;;;;;23.70;101744.00;;;;5083670;28;20202;-78
2022/09/05 01:44:54;;;;;;;1.58;1.40;;;;;23.50;101741.00;;;;5088379;28;20218;-78
2022/09/05 01:47:34;;;;;;;2.08;1.35;;;;;23.60;101741.00;;;;5083813;28;20442;-78
2022/09/05 01:50:12;;;;;;;1.40;1.30;;;;;23.60;101739.00;;;;5086286;28;21027;-78
2022/09/05 01:52:55;;;;;;;1.52;1.40;;;;;23.60;101747.00;;;;5086110;28;20212;-78
2022/09/05 01:55:44;;;;;;;1.70;1.40;;;;;23.60;101742.00;;;;5088228;28;20198;-78
2022/09/05 01:58:17;;;;;;;1.70;1.60;;;;;23.60;101742.00;;;;5086979;28;20191;-78
2022/09/05 02:00:54;;;;;;;2.13;1.77;;;;;23.60;101745.00;;;;5086496;28;20283;-78
2022/09/05 02:03:33;;;;;;;1.92;1.38;;;;;23.60;101745.00;;;;5088473;28;20313;-78
2022/09/05 02:06:25;;;;;;;2.03;1.70;;;;;23.50;101742.00;;;;5088433;28;20190;-78
2022/09/05 02:09:14;;;;;;;2.42;1.25;;;;;23.50;101741.00;;;;5087980;28;20750;-78
2022/09/05 02:11:47;;;;;;;1.40;1.20;;;;;23.60;101747.00;;;;5085784;28;20205;-77
2022/09/05 02:14:31;;;;;;;2.83;1.80;;;;;23.50;101748.00;;;;5088458;28;20187;-78
2022/09/05 02:17:16;;;;;;;3.10;1.50;;;;;23.50;101748.00;;;;5087153;28;20194;-78
2022/09/05 02:19:47;;;;;;;2.15;1.20;;;;;23.60;101742.00;;;;5069017;28;20214;-78
2022/09/05 02:22:20;;;;;;;1.65;1.55;;;;;23.50;101750.00;;;;5079936;28;20222;-78
2022/09/05 02:24:54;;;;;;;1.35;1.23;;;;;23.50;101743.00;;;;5088219;28;20738;-78
2022/09/05 02:27:28;;;;;;;3.85;1.50;;;;;23.50;101745.00;;;;5089066;28;20246;-78
2022/09/05 02:30:07;;;;;;;1.45;1.33;;;;;23.50;101746.00;;;;5087481;28;20230;-78
2022/09/05 02:32:46;;;;;;;2.05;1.52;;;;;23.50;101756.00;;;;5079794;28;20201;-78
2022/09/05 02:35:20;;;;;;;2.35;1.65;;;;;23.50;101754.00;;;;5088098;28;20198;-78
2022/09/05 02:37:51;;;;;;;2.47;1.98;;;;;23.50;101754.00;;;;5087658;28;20205;-78
2022/09/05 02:40:24;;;;;;;3.13;1.45;;;;;23.50;101749.00;;;;5085863;28;20651;-78
2022/09/05 02:42:58;;;;;;;1.88;1.50;;;;;23.50;101749.00;;;;5088179;28;20197;-78
2022/09/05 02:45:37;;;;;;;3.65;1.75;;;;;23.40;101749.00;;;;5087971;28;20676;-78
2022/09/05 02:48:16;;;;;;;3.03;1.25;;;;;23.50;101744.00;;;;5086419;28;20232;-78
2022/09/05 02:51:13;;;;;;;2.03;1.60;;;;;23.40;101746.00;;;;5085268;28;20201;-78
2022/09/05 02:53:44;;;;;;;1.80;1.40;;;;;23.50;101752.00;;;;5087829;28;20194;-78
2022/09/05 02:56:37;;;;;;;1.92;1.38;;;;;23.40;101750.00;;;;5081550;28;20198;-78
2022/09/05 02:59:15;;;;;;;1.98;1.77;;;;;23.40;101750.00;;;;5066498;28;20564;-78
2022/09/05 03:01:55;;;;;;;2.33;1.80;;;;;23.40;101747.00;;;;5084517;28;20245;-78
2022/09/05 03:04:33;;;;;;;2.50;1.65;;;;;23.40;101745.00;;;;5086694;28;20230;-78
2022/09/05 03:07:26;;;;;;;2.10;1.90;;;;;23.40;101751.00;;;;5087534;28;20202;-78
2022/09/05 03:10:13;;;;;;;3.90;2.00;;;;;23.40;101749.00;;;;5085456;28;20209;-78
2022/09/05 03:13:13;;;;;;;2.20;1.92;;;;;23.30;101759.00;;;;5083025;28;20657;-78
2022/09/05 03:16:17;;;;;;;2.70;1.90;;;;;23.30;101752.00;;;;5055315;28;20548;-78
2022/09/05 03:19:24;;;;;;;2.30;1.88;;;;;23.30;101755.00;;;;5067037;28;20577;-78
2022/09/05 03:22:21;;;;;;;2.08;1.67;;;;;23.30;101753.00;;;;5078725;28;20783;-78
2022/09/05 03:25:27;;;;;;;2.08;1.88;;;;;23.30;101747.00;;;;5071824;28;20234;-78
2022/09/05 03:28:37;;;;;;;1.92;1.70;;;;;23.30;101749.00;;;;5060185;28;20209;-78
2022/09/05 03:31:34;;;;;;;3.13;2.13;;;;;23.30;101752.00;;;;5087391;28;20233;-78
2022/09/05 03:34:37;;;;;;;2.03;1.83;;;;;23.30;101746.00;;;;5090662;28;20199;-78
2022/09/05 03:37:42;;;;;;;2.35;1.90;;;;;23.30;101752.00;;;;5091214;28;20198;-78
2022/09/05 03:40:26;;;;;;;2.08;1.88;;;;;23.30;101753.00;;;;5079729;28;20699;-77
2022/09/05 03:43:09;;;;;;;2.20;2.00;;;;;23.30;101754.00;;;;5085825;28;20217;-78
2022/09/05 03:46:06;;;;;;;2.35;2.05;;;;;23.30;101758.00;;;;5087508;28;20225;-78
2022/09/05 03:49:08;;;;;;;2.50;2.30;;;;;23.30;101762.00;;;;5070238;28;20198;-78
2022/09/05 03:51:46;;;;;;;2.97;1.77;;;;;23.30;101755.00;;;;5090007;28;20676;-78
2022/09/05 03:54:59;;;;;;;2.65;2.45;;;;;23.30;101754.00;;;;5071093;28;20207;-78
2022/09/05 03:57:42;;;;;;;3.33;2.92;;;;;23.30;101750.00;;;;5074728;28;20232;-78
2022/09/05 04:00:20;;;;;;;2.78;2.42;;;;;23.40;101747.00;;;;5091461;28;20512;-78
2022/09/05 04:03:01;;;;;;;3.03;2.33;;;;;23.30;101752.00;;;;5089297;28;20219;-78
2022/09/05 04:05:31;;;;;;;3.03;2.45;;;;;23.40;101749.00;;;;5091880;28;20279;-78
2022/09/05 04:08:07;;;;;;;4.88;2.85;;;;;23.40;101759.00;;;;5090901;28;20205;-78
2022/09/05 04:10:44;;;;;;;4.10;2.72;;;;;23.40;101755.00;;;;5090194;28;20217;-78
2022/09/05 04:13:20;;;;;;;3.00;2.60;;;;;23.40;101749.00;;;;5089649;28;20202;-78
2022/09/05 04:15:59;;;;;;;3.35;2.33;;;;;23.40;101755.00;;;;5083539;28;20210;-78
2022/09/05 04:18:34;;;;;;;5.47;2.63;;;;;23.40;101762.00;;;;5070340;28;20692;-78
2022/09/05 04:21:06;;;;;;;3.25;2.40;;;;;23.40;101758.00;;;;5083129;28;20274;-78
2022/09/05 04:23:44;;;;;;;3.38;2.53;;;;;23.40;101753.00;;;;5089899;28;20202;-78
2022/09/05 04:26:26;;;;;;;4.05;3.08;;;;;23.40;101759.00;;;;5090467;28;20218;-79
2022/09/05 04:29:02;;;;;;;3.17;2.63;;;;;23.50;101748.00;;;;5088404;28;20202;-77
2022/09/05 04:31:39;;;;;;;4.10;2.83;;;;;23.40;101751.00;;;;5085433;28;20186;-77
2022/09/05 04:34:22;;;;;;;7.90;3.65;;;;;23.40;101748.00;;;;5084646;28;20687;-77
2022/09/05 04:37:01;;;;;;;6.70;3.05;;;;;23.40;101757.00;;;;5069624;28;20541;-78
2022/09/05 04:39:29;;;;;;;3.92;3.20;;;;;23.50;101760.00;;;;5077328;28;20194;-78
2022/09/05 04:42:20;;;;;;;4.68;3.47;;;;;23.50;101761.00;;;;5089605;28;20198;-78
2022/09/05 04:44:51;;;;;;;5.95;3.53;;;;;23.50;101756.00;;;;5088986;28;21879;-78
2022/09/05 04:47:23;;;;;;;3.97;3.25;;;;;23.50;101766.00;;;;5078244;28;20577;-78
2022/09/05 04:49:54;;;;;;;5.88;3.28;;;;;23.60;101774.00;;;;5085113;28;20213;-78
2022/09/05 04:52:52;;;;;;;3.40;2.95;;;;;23.50;101769.00;;;;5089719;28;20201;-77
2022/09/05 04:55:23;;;;;;;3.20;2.78;;;;;23.60;101770.00;;;;5090155;28;20205;-77
2022/09/05 04:57:57;;;;;;;5.93;3.10;;;;;23.60;101770.00;;;;5076379;28;20691;-77
2022/09/05 05:00:36;;;;;;;4.10;3.05;;;;;23.60;101760.00;;;;5077308;28;20201;-77
2022/09/05 05:03:11;;;;;;;4.25;2.78;;;;;23.70;101764.00;;;;5089871;28;20209;-77
2022/09/05 05:05:54;;;;;;;9.60;3.85;;;;;23.60;101768.00;;;;5088450;28;20236;-77
2022/09/05 05:08:27;;;;;;;5.40;3.90;;;;;23.70;101766.00;;;;5083106;28;20202;-78
2022/09/05 05:10:58;;;;;;;4.05;3.20;;;;;23.70;101771.00;;;;5088021;28;20199;-77
2022/09/05 05:13:30;;;;;;;6.20;3.55;;;;;23.70;101767.00;;;;5087641;28;20205;-77
2022/09/05 05:16:04;;;;;;;3.90;3.15;;;;;23.70;101772.00;;;;5088480;28;20529;-77
2022/09/05 05:18:35;;;;;;;3.85;3.38;;;;;23.70;101771.00;;;;5089331;28;20194;-77
2022/09/05 05:21:05;;;;;;;3.58;3.25;;;;;23.80;101773.00;;;;5082105;28;20202;-78
2022/09/05 05:23:36;;;;;;;5.05;3.70;;;;;23.80;101776.00;;;;5084334;28;20210;-78
2022/09/05 05:26:08;;;;;;;4.78;3.30;;;;;23.80;101779.00;;;;5079378;28;20234;-76
2022/09/05 05:28:49;;;;;;;5.30;3.95;;;;;23.70;101788.00;;;;5083252;28;20647;-76
2022/09/05 05:31:20;;;;;;;4.55;3.45;;;;;23.80;101781.00;;;;5084936;28;20263;-78
2022/09/05 05:33:50;;;;;;;8.82;3.72;;;;;23.80;101776.00;;;;5086843;28;20213;-79
2022/09/05 05:36:22;;;;;;;5.93;3.75;;;;;23.90;101767.00;;;;5076228;28;20201;-79
2022/09/05 05:38:56;;;;;;;3.63;3.00;;;;;23.90;101777.00;;;;5085737;28;20199;-78
2022/09/05 05:41:27;;;;;;;4.70;3.63;;;;;23.90;101776.00;;;;5086686;28;20531;-77
2022/09/05 05:43:56;;;;;;;4.80;3.50;;;;;23.90;101774.00;;;;5086213;28;20190;-78
2022/09/05 05:46:34;;;;;;;4.95;3.53;;;;;23.90;101775.00;;;;5082589;28;20194;-78
2022/09/05 05:49:16;;;;;;;4.18;3.50;;;;;23.90;101769.00;;;;5080962;28;20209;-78
2022/09/05 05:51:52;;;;;;;3.97;3.58;;;;;24.00;101777.00;;;;5081018;28;20664;-78
2022/09/05 05:54:28;;;;;;;5.13;4.18;;;;;24.00;101780.00;;;;5084736;28;20250;-77
2022/09/05 05:57:31;;;;;;;6.55;4.10;;;;;24.00;101786.00;;;;5082310;28;20281;-80
2022/09/05 06:00:07;;;;;;;4.45;3.78;;;;;24.10;101782.00;;;;5068807;28;20206;-78
2022/09/05 06:03:22;;;;;;;4.47;3.30;;;;;24.10;101780.00;;;;5086231;28;20194;-78
2022/09/05 06:06:06;;;;;;;5.90;4.00;;;;;24.20;101783.00;;;;5087902;28;20592;-78
2022/09/05 06:08:55;;;;;;;5.65;3.55;;;;;24.30;101791.00;;;;5087740;28;20199;-78
2022/09/05 06:11:55;;;;;;;4.18;3.15;;;;;24.30;101783.00;;;;5089024;28;20203;-78
2022/09/05 06:15:06;;;;;;;5.15;3.90;;;;;24.40;101789.00;;;;5087710;28;20248;-78
2022/09/05 06:18:02;;;;;;;5.07;3.80;;;;;24.50;101791.00;;;;5060660;28;20202;-78
2022/09/05 06:21:04;;;;;;;6.93;3.55;;;;;24.60;101795.00;;;;5075913;28;20221;-78
2022/09/05 06:24:23;;;;;;;3.65;3.03;;;;;24.70;101795.00;;;;5086694;28;20209;-78
2022/09/05 06:27:15;;;;;;;5.68;3.28;;;;;24.80;101801.00;;;;5062036;28;20218;-78
2022/09/05 06:29:56;;;;;;;6.80;3.30;;;;;24.90;101801.00;;;;5087959;28;20233;-78
2022/09/05 06:32:47;;;;;;;3.92;3.15;;;;;25.00;101813.00;;;;5086832;28;20205;-78
2022/09/05 06:35:26;;;;;;;6.38;4.40;;;;;25.10;101807.00;;;;5077322;28;20224;-78
2022/09/05 06:38:04;;;;;;;4.53;3.70;;;;;25.10;101814.00;;;;5085976;28;20284;-78
2022/09/05 06:40:37;;;;;;;4.03;3.47;;;;;25.30;101819.00;;;;5074567;28;20199;-78
2022/09/05 06:43:25;;;;;;;4.72;3.78;;;;;25.30;101816.00;;;;5067496;28;20202;-78
2022/09/05 06:46:20;;;;;;;5.30;3.15;;;;;25.40;101816.00;;;;5072820;28;20678;-79
2022/09/05 06:48:53;;;;;;;6.38;3.90;;;;;25.50;101817.00;;;;5081627;28;20217;-79
2022/09/05 06:51:46;;;;;;;4.72;3.47;;;;;25.60;101823.00;;;;5085562;28;20209;-78
2022/09/05 06:54:39;;;;;;;3.60;3.30;;;;;25.70;101822.00;;;;5085633;28;20198;-79
2022/09/05 06:57:35;;;;;;;6.28;3.97;;;;;25.70;101828.00;;;;5086410;28;20246;-78
2022/09/05 07:00:11;;;;;;;3.78;3.47;;;;;25.90;101823.00;;;;5086567;28;21049;-78
2022/09/05 07:02:44;;;;;;;5.32;4.38;;;;;26.00;101820.00;;;;5071796;28;20572;-80
2022/09/05 07:05:27;;;;;;;4.43;3.78;;;;;26.00;101825.00;;;;5086550;28;20643;-80
2022/09/05 07:08:03;;;;;;;4.88;3.80;;;;;26.20;101823.00;;;;5089676;28;20193;-80
2022/09/05 07:10:38;;;;;;;6.07;4.22;;;;;26.20;101822.00;;;;5091241;28;20286;-81
2022/09/05 07:13:12;;;;;;;5.93;4.50;;;;;26.30;101821.00;;;;5089503;28;20202;-79
2022/09/05 07:15:54;;;;;;;6.35;4.93;;;;;26.40;101821.00;;;;5090258;28;20198;-80
2022/09/05 07:18:30;;;;;;;6.25;4.03;;;;;26.40;101817.00;;;;5088413;28;20194;-82
2022/09/05 07:21:04;;;;;;;5.10;3.88;;;;;26.50;101821.00;;;;5092596;28;20241;-82
2022/09/05 07:23:46;;;;;;;10.13;4.03;;;;;26.50;101819.00;;;;5091370;28;20202;-82
2022/09/05 07:26:16;;;;;;;4.47;3.75;;;;;26.70;101818.00;;;;5091501;28;20226;-82
2022/09/05 07:28:47;;;;;;;4.32;3.92;;;;;26.70;101826.00;;;;5090778;28;20194;-82
2022/09/05 07:31:17;;;;;;;5.43;4.43;;;;;26.80;101824.00;;;;5088157;28;20217;-82
2022/09/05 07:33:47;;;;;;;4.88;3.85;;;;;26.90;101825.00;;;;5091373;28;20202;-82
2022/09/05 07:36:19;;;;;;;4.72;4.30;;;;;26.90;101823.00;;;;5084292;28;21188;-82
2022/09/05 07:38:50;;;;;;;5.35;4.53;;;;;27.00;101823.00;;;;5090175;28;20194;-82
2022/09/05 07:41:22;;;;;;;4.07;3.67;;;;;27.10;101821.00;;;;5090883;28;20198;-83
2022/09/05 07:43:54;;;;;;;3.63;3.33;;;;;27.20;101825.00;;;;5090290;28;20206;-82
2022/09/05 07:46:24;;;;;;;4.22;3.78;;;;;27.30;101824.00;;;;5090693;28;20316;-81
2022/09/05 07:48:55;;;;;;;4.90;4.32;;;;;27.40;101831.00;;;;5086554;28;20655;-80
2022/09/05 07:51:27;;;;;;;5.55;4.15;;;;;27.50;101831.00;;;;5081788;28;20693;-82
2022/09/05 07:53:57;;;;;;;4.45;3.78;;;;;27.60;101838.00;;;;5088559;28;20240;-82
2022/09/05 07:56:43;;;;;;;4.90;3.35;;;;;27.60;101843.00;;;;5083513;28;20267;-81
2022/09/05 07:59:13;;;;;;;5.63;3.45;;;;;27.80;101847.00;;;;5086880;28;20581;-83
2022/09/05 08:01:44;;;;;;;4.93;3.65;;;;;27.90;101846.00;;;;5087474;28;20194;-82
2022/09/05 08:04:22;;;;;;;4.82;3.08;;;;;28.00;101851.00;;;;5084985;28;20199;-82
2022/09/05 08:06:52;;;;;;;5.57;3.80;;;;;28.10;101848.00;;;;5088303;28;20228;-82
2022/09/05 08:09:24;;;;;;;10.35;3.42;;;;;28.20;101858.00;;;;5091298;28;20209;-80
2022/09/05 08:11:53;;;;;;;6.10;4.18;;;;;28.30;101848.00;;;;5088904;28;20206;-80
2022/09/05 08:14:33;;;;;;;3.45;2.90;;;;;28.40;101849.00;;;;5090161;28;20194;-78
2022/09/05 08:17:01;;;;;;;5.40;3.10;;;;;28.60;101846.00;;;;5080729;28;20194;-81
2022/09/05 08:19:55;;;;;;;4.05;3.40;;;;;28.60;101850.00;;;;5089002;28;20648;-80
2022/09/05 08:22:29;;;;;;;3.60;2.92;;;;;28.80;101847.00;;;;5089107;28;20599;-80
2022/09/05 08:25:02;;;;;;;4.82;2.78;;;;;29.00;101859.00;;;;5088244;28;20635;-80
2022/09/05 08:27:37;;;;;;;3.92;2.90;;;;;29.10;101855.00;;;;5087926;28;20589;-80
2022/09/05 08:30:09;;;;;;;3.55;2.42;;;;;29.30;101865.00;;;;5087311;28;20233;-80
2022/09/05 08:32:43;;;;;;;2.30;2.05;;;;;29.40;101864.00;;;;5085310;28;20194;-79
2022/09/05 08:35:16;;;;;;;6.82;2.38;;;;;29.50;101864.00;;;;5086781;28;20614;-81
2022/09/05 08:37:49;;;;;;;3.35;2.42;;;;;29.60;101864.00;;;;5077732;28;20202;-80
2022/09/05 08:40:26;;;;;;;2.63;2.42;;;;;29.70;101863.00;;;;5084273;28;20582;-81
2022/09/05 08:43:02;;;;;;;6.38;2.70;;;;;29.80;101863.00;;;;5086126;28;20198;-81
2022/09/05 08:45:39;;;;;;;3.22;2.17;;;;;29.90;101856.00;;;;5084295;28;20229;-81
2022/09/05 08:48:21;;;;;;;3.03;2.35;;;;;30.00;101853.00;;;;5087423;28;20205;-81
2022/09/05 08:51:05;;;;;;;2.20;2.00;;;;;30.20;101849.00;;;;5089059;28;20202;-81
2022/09/05 08:53:57;;;;;;;2.70;2.20;;;;;30.30;101851.00;;;;5088288;28;20221;-82
2022/09/05 08:56:30;;;;;;;3.85;1.83;;;;;30.50;101844.00;;;;5074971;28;20187;-82
2022/09/05 08:59:02;;;;;;;3.05;2.38;;;;;30.70;101846.00;;;;5088785;28;20846;-81
2022/09/05 09:01:37;;;;;;;2.75;1.83;;;;;30.80;101846.00;;;;5075598;28;20199;-82
2022/09/05 09:04:15;;;;;;;2.90;2.10;;;;;30.90;101848.00;;;;5084047;28;20255;-81
2022/09/05 09:07:16;;;;;;;6.70;2.15;;;;;31.00;101844.00;;;;5088794;28;20217;-82
2022/09/05 09:09:54;;;;;;;2.50;2.15;;;;;31.20;101845.00;;;;5068677;28;20217;-82
2022/09/05 09:13:07;;;;;;;2.08;1.88;;;;;31.30;101844.00;;;;5078256;28;20202;-82
2022/09/05 09:15:39;;;;;;;3.22;1.95;;;;;31.60;101852.00;;;;5032729;28;20206;-83
2022/09/05 09:18:13;;;;;;;2.45;2.03;;;;;31.70;101844.00;;;;5069033;28;20190;-82
2022/09/05 09:20:51;;;;;;;2.65;1.85;;;;;31.80;101840.00;;;;5074713;28;20212;-82
2022/09/05 09:23:37;;;;;;;2.55;1.85;;;;;32.00;101842.00;;;;5086395;28;20198;-82
2022/09/05 09:26:14;;;;;;;4.10;1.73;;;;;32.20;101835.00;;;;5087084;28;20608;-82
2022/09/05 09:28:49;;;;;;;2.65;1.60;;;;;32.30;101834.00;;;;5087151;28;20206;-82
2022/09/05 09:31:31;;;;;;;2.55;1.60;;;;;32.50;101830.00;;;;5086849;28;20228;-82
2022/09/05 09:34:13;;;;;;;6.25;1.80;;;;;32.60;101830.00;;;;5086347;28;20675;-82
2022/09/05 09:36:59;;;;;;;1.65;1.55;;;;;32.70;101827.00;;;;5075673;28;20617;-83
2022/09/05 09:39:37;;;;;;;2.55;1.88;;;;;32.80;101816.00;;;;5087757;28;20197;-82
2022/09/05 09:42:22;;;;;;;6.57;1.63;;;;;32.90;101820.00;;;;5088740;28;20201;-82
2022/09/05 09:45:24;;;;;;;3.67;1.35;;;;;33.10;101820.00;;;;5085717;28;20205;-82
2022/09/05 09:48:27;;;;;;;1.40;1.23;;;;;33.20;101818.00;;;;5068908;28;20777;-81
2022/09/05 09:51:06;;;;;;;1.17;1.00;;;;;33.30;101822.00;;;;5063742;28;20194;-80
2022/09/05 09:53:47;;;;;;;2.10;1.30;;;;;33.50;101815.00;;;;5072519;28;20204;-81
2022/09/05 09:56:39;;;;;;;6.30;1.55;;;;;33.60;101806.00;;;;5087071;28;20216;-82
2022/09/05 09:59:41;;;;;;;2.20;1.42;;;;;33.70;101805.00;;;;5074890;28;20304;-81
2022/09/05 10:02:23;;;;;;;1.70;1.38;;;;;33.80;101810.00;;;;5087915;28;20198;-81
2022/09/05 10:05:17;;;;;;;1.33;1.23;;;;;33.90;101808.00;;;;5087503;28;20619;-82
2022/09/05 10:08:08;;;;;;;6.55;1.20;;;;;34.00;101812.00;;;;5088379;28;20215;-81
2022/09/05 10:11:08;;;;;;;1.42;1.23;;;;;34.10;101811.00;;;;5087114;28;20200;-81
2022/09/05 10:14:12;;;;;;;2.03;1.48;;;;;34.20;101811.00;;;;5069161;28;20191;-81
2022/09/05 10:16:58;;;;;;;1.65;1.35;;;;;34.40;101801.00;;;;5077684;28;20229;-82
2022/09/05 10:19:53;;;;;;;7.75;2.00;;;;;34.40;101802.00;;;;5086322;28;20205;-81
2022/09/05 10:22:51;;;;;;;1.58;1.38;;;;;34.50;101801.00;;;;5085105;28;20212;-81
2022/09/05 10:25:33;;;;;;;1.60;1.17;;;;;34.70;101796.00;;;;5088393;28;20205;-81
2022/09/05 10:28:07;;;;;;;1.83;1.40;;;;;34.80;101787.00;;;;5087358;28;20198;-80
2022/09/05 10:30:44;;;;;;;3.80;1.52;;;;;34.90;101786.00;;;;5067028;28;20226;-80
2022/09/05 10:33:29;;;;;;;1.33;1.23;;;;;34.90;101791.00;;;;5072076;28;20209;-81
2022/09/05 10:36:04;;;;;;;3.10;1.38;;;;;35.10;101789.00;;;;5078089;28;20201;-81
2022/09/05 10:38:39;;;;;;;2.00;1.02;;;;;35.20;101785.00;;;;5080944;28;20186;-81
2022/09/05 10:41:10;;;;;;;1.50;1.40;;;;;35.30;101788.00;;;;5078892;28;20280;-81
2022/09/05 10:43:45;;;;;;;2.40;1.20;;;;;35.30;101786.00;;;;5084858;28;20201;-80
2022/09/05 10:46:25;;;;;;;3.08;1.33;;;;;35.50;101788.00;;;;5085027;28;20225;-80
2022/09/05 10:48:56;;;;;;;1.15;0.93;;;;;35.60;101785.00;;;;5087141;28;20686;-81
2022/09/05 10:51:29;;;;;;;1.70;1.10;;;;;35.70;101790.00;;;;5084852;28;20217;-80
2022/09/05 10:54:19;;;;;;;1.65;0.93;;;;;35.70;101785.00;;;;5087217;28;20190;-81
2022/09/05 10:56:50;;;;;;;1.75;1.20;;;;;35.80;101792.00;;;;5087766;28;20194;-81
2022/09/05 10:59:27;;;;;;;1.25;1.02;;;;;35.90;101788.00;;;;5086043;28;20186;-81
2022/09/05 11:02:03;;;;;;;2.35;1.35;;;;;35.90;101792.00;;;;5085802;28;20201;-81
2022/09/05 11:04:48;;;;;;;1.23;0.90;;;;;36.00;101787.00;;;;5087931;28;20544;-80
2022/09/05 11:07:20;;;;;;;1.23;0.98;;;;;36.10;101781.00;;;;5087221;28;20232;-81
2022/09/05 11:10:01;;;;;;;2.05;1.10;;;;;36.10;101784.00;;;;5087360;28;20220;-80
2022/09/05 11:13:05;;;;;;;2.13;1.02;;;;;36.20;101772.00;;;;5087260;28;20194;-80
2022/09/05 11:15:42;;;;;;;1.75;0.90;;;;;36.20;101778.00;;;;5004437;28;20200;-80
2022/09/05 11:18:16;;;;;;;1.40;1.20;;;;;36.30;101768.00;;;;5004038;28;20639;-79
2022/09/05 11:21:01;;;;;;;1.45;1.00;;;;;36.20;101768.00;;;;5051982;28;20205;-79
2022/09/05 11:23:34;;;;;;;4.82;1.33;;;;;36.30;101765.00;;;;5088731;28;20204;-80
2022/09/05 11:26:06;;;;;;;1.52;1.25;;;;;36.30;101766.00;;;;5088550;28;20229;-79
2022/09/05 11:28:39;;;;;;;1.40;1.30;;;;;36.40;101774.00;;;;5087190;28;20197;-80
2022/09/05 11:31:11;;;;;;;1.98;1.23;;;;;36.40;101774.00;;;;5085077;28;20217;-77
2022/09/05 11:34:27;;;;;;;1.10;0.95;;;;;36.30;101770.00;;;;5082843;28;20551;-80
2022/09/05 11:36:58;;;;;;;1.27;1.00;;;;;36.50;101781.00;;;;5011160;28;20283;-79
2022/09/05 11:40:04;;;;;;;1.33;1.10;;;;;36.40;101769.00;;;;5074043;28;20208;-78
2022/09/05 11:42:52;;;;;;;2.08;1.20;;;;;36.40;101774.00;;;;5083879;28;20205;-78
2022/09/05 11:46:01;;;;;;;1.20;1.10;;;;;36.40;101773.00;;;;5086355;28;20198;-78
2022/09/05 11:48:57;;;;;;;1.38;0.93;;;;;36.40;101768.00;;;;5083136;28;20190;-79
2022/09/05 11:51:50;;;;;;;1.92;1.25;;;;;36.50;101764.00;;;;5086924;28;20197;-79
2022/09/05 11:54:45;;;;;;;1.30;1.10;;;;;36.50;101760.00;;;;5089525;28;20201;-79
2022/09/05 11:57:37;;;;;;;3.67;1.20;;;;;36.60;101759.00;;;;5089479;28;20199;-81
2022/09/05 12:00:23;;;;;;;1.17;1.08;;;;;36.60;101754.00;;;;5085434;28;20198;-80
2022/09/05 12:03:18;;;;;;;2.97;1.02;;;;;36.70;101759.00;;;;5077672;28;20213;-80
2022/09/05 12:06:06;;;;;;;1.55;0.90;;;;;36.70;101757.00;;;;5089529;28;20198;-79
2022/09/05 12:08:38;;;;;;;1.40;1.30;;;;;36.70;101754.00;;;;5089555;28;20194;-80
2022/09/05 12:11:20;;;;;;;1.77;0.80;;;;;36.70;101753.00;;;;5085673;28;20534;-78
2022/09/05 12:13:52;;;;;;;2.40;1.17;;;;;36.70;101761.00;;;;5070119;28;20205;-78
2022/09/05 12:16:42;;;;;;;1.02;0.93;;;;;36.50;101753.00;;;;5088650;28;20242;-78
2022/09/05 12:19:26;;;;;;;0.95;0.77;;;;;36.40;101754.00;;;;5091254;28;20194;-80
2022/09/05 12:22:20;;;;;;;1.65;1.05;;;;;36.40;101758.00;;;;5086853;28;20750;-80
2022/09/05 12:25:14;;;;;;;2.55;1.13;;;;;36.30;101751.00;;;;5086980;28;20198;-79
2022/09/05 12:27:47;;;;;;;2.40;1.08;;;;;36.20;101747.00;;;;5086170;28;20225;-82
2022/09/05 12:30:23;;;;;;;1.33;0.98;;;;;36.10;101753.00;;;;5088379;28;20684;-81
2022/09/05 12:32:52;;;;;;;1.75;0.85;;;;;36.10;101751.00;;;;5084587;28;20201;-80
2022/09/05 12:35:30;;;;;;;3.10;1.00;;;;;36.00;101755.00;;;;5085416;28;20529;-79
2022/09/05 12:38:09;;;;;;;2.65;1.00;;;;;35.90;101747.00;;;;5089824;28;20224;-79
2022/09/05 12:40:41;;;;;;;1.48;1.15;;;;;35.90;101750.00;;;;5086061;28;20198;-81
2022/09/05 12:43:12;;;;;;;2.45;0.98;;;;;35.80;101747.00;;;;5088365;28;20194;-79
2022/09/05 12:45:46;;;;;;;5.20;1.20;;;;;35.70;101745.00;;;;5087681;28;20221;-80
2022/09/05 12:48:17;;;;;;;2.50;0.95;;;;;35.70;101739.00;;;;5087344;28;20221;-78
2022/09/05 12:50:54;;;;;;;1.10;1.00;;;;;35.60;101745.00;;;;5083792;28;20202;-77
2022/09/05 12:53:24;;;;;;;0.88;0.88;;;;;35.50;101737.00;;;;5086066;28;20224;-78
2022/09/05 12:55:56;;;;;;;1.27;0.95;;;;;35.50;101739.00;;;;5082161;28;20198;-79
2022/09/05 12:58:28;;;;;;;2.22;1.30;;;;;35.40;101735.00;;;;5089504;28;20217;-79
2022/09/05 13:01:19;;;;;;;1.25;1.05;;;;;35.40;101737.00;;;;5086978;28;20205;-79
2022/09/05 13:03:50;;;;;;;2.10;1.00;;;;;35.50;101740.00;;;;5080902;28;20198;-80
2022/09/05 13:06:23;;;;;;;0.75;0.70;;;;;35.40;101738.00;;;;5089031;28;20209;-81
2022/09/05 13:08:56;;;;;;;1.60;0.90;;;;;35.50;101741.00;;;;5088913;28;20750;-78
2022/09/05 13:11:25;;;;;;;1.25;0.80;;;;;35.50;101734.00;;;;5088522;28;20676;-80
2022/09/05 13:13:58;;;;;;;2.13;1.00;;;;;35.50;101734.00;;;;5086399;28;20201;-79
2022/09/05 13:16:28;;;;;;;2.63;1.20;;;;;35.50;101736.00;;;;5088194;28;20205;-79
2022/09/05 13:19:06;;;;;;;1.15;0.90;;;;;35.50;101730.00;;;;5088844;28;20201;-79